Time;durP1;ratioP1;P1;durP2;ratioP2;P2;SDS_P1;SDS_P2;PMS_P1;PMS_P2;Temp;Humidity;BMP_temperature;BMP_pressure;BME280_temperature;BME280_humidity;BME280_pressure;Samples;Min_cycle;Max_cycle;Signal;HPM_P1;HPM_P2
2023/09/28 00:01:35;;;;;;;1999.90;999.90;;;18.30;99.90;;;;;;5001750;28;20042;-68
2023/09/28 00:04:01;;;;;;;1999.90;999.90;;;18.30;99.90;;;;;;4988806;28;20569;-67
2023/09/28 00:06:27;;;;;;;1999.90;999.90;;;18.30;99.90;;;;;;4972868;28;20391;-67
2023/09/28 00:08:53;;;;;;;1999.90;999.90;;;18.20;99.90;;;;;;5001741;28;20044;-67
2023/09/28 00:11:18;;;;;;;1999.90;999.90;;;18.20;99.90;;;;;;4990412;28;20050;-67
2023/09/28 00:13:44;;;;;;;1999.90;999.90;;;18.20;99.90;;;;;;4978151;28;20054;-68
2023/09/28 00:16:10;;;;;;;1999.90;999.90;;;18.10;99.90;;;;;;4983807;28;20047;-67
2023/09/28 00:18:36;;;;;;;1999.90;999.90;;;18.10;99.90;;;;;;4977222;28;20030;-68
2023/09/28 00:21:02;;;;;;;1999.90;999.90;;;18.10;99.90;;;;;;4986496;28;20050;-67
2023/09/28 00:23:27;;;;;;;1999.90;999.90;;;18.10;99.90;;;;;;4981923;28;20087;-67
2023/09/28 00:25:53;;;;;;;1999.90;999.90;;;18.10;99.90;;;;;;4977318;28;20123;-67
2023/09/28 00:28:18;;;;;;;1999.90;999.90;;;18.10;99.90;;;;;;4976260;28;20053;-67
2023/09/28 00:30:44;;;;;;;1999.90;999.90;;;18.10;99.90;;;;;;4981043;28;20446;-67
2023/09/28 00:33:10;;;;;;;1999.90;999.90;;;18.10;99.90;;;;;;4969620;28;20077;-68
2023/09/28 00:35:35;;;;;;;1999.90;999.90;;;18.10;99.90;;;;;;4977951;28;20035;-67
2023/09/28 00:38:01;;;;;;;1999.90;999.90;;;18.10;99.90;;;;;;4976138;28;20084;-67
2023/09/28 00:40:32;;;;;;;1999.90;999.90;;;18.10;99.90;;;;;;4975055;28;20100;-67
2023/09/28 00:42:59;;;;;;;1999.90;999.90;;;18.10;99.90;;;;;;4969673;28;20059;-68
2023/09/28 00:45:26;;;;;;;1999.90;999.90;;;18.10;99.90;;;;;;5007273;28;20036;-68
2023/09/28 00:47:55;;;;;;;1999.90;999.90;;;18.10;99.90;;;;;;4975859;28;20078;-68
2023/09/28 00:50:21;;;;;;;1999.90;999.90;;;18.20;99.90;;;;;;4972115;28;20038;-68
2023/09/28 00:53:06;;;;;;;1999.90;999.90;;;18.20;99.90;;;;;;4982615;28;20088;-68
2023/09/28 00:55:39;;;;;;;1999.90;999.90;;;18.20;99.90;;;;;;5051441;28;20116;-68
2023/09/28 00:58:06;;;;;;;1999.90;999.90;;;18.20;99.90;;;;;;4972998;28;20039;-68
2023/09/28 01:00:33;;;;;;;1999.90;999.90;;;18.20;99.90;;;;;;4971647;28;20050;-68
2023/09/28 01:03:05;;;;;;;1999.90;999.90;;;18.20;99.90;;;;;;4974151;28;20148;-68
2023/09/28 01:05:33;;;;;;;1999.90;999.90;;;18.20;99.90;;;;;;4969627;28;20046;-68
2023/09/28 01:08:12;;;;;;;1999.90;999.90;;;18.20;99.90;;;;;;4971830;28;20426;-69
2023/09/28 01:10:40;;;;;;;1999.90;999.90;;;18.20;99.90;;;;;;4975700;28;20520;-68
2023/09/28 01:13:10;;;;;;;1999.90;999.90;;;18.10;99.90;;;;;;4972497;28;20074;-68
2023/09/28 01:15:40;;;;;;;1999.90;999.90;;;18.10;99.90;;;;;;4969757;28;20039;-68
2023/09/28 01:18:16;;;;;;;1999.90;999.90;;;18.10;99.90;;;;;;4968175;28;20122;-68
2023/09/28 01:20:47;;;;;;;1999.90;999.90;;;18.10;99.90;;;;;;4983857;28;20051;-68
2023/09/28 01:23:13;;;;;;;1999.90;999.90;;;18.00;99.90;;;;;;4982768;28;20049;-68
2023/09/28 01:25:39;;;;;;;1999.90;999.90;;;18.00;99.90;;;;;;4972349;28;20078;-68
2023/09/28 01:28:06;;;;;;;1999.90;999.90;;;18.00;99.90;;;;;;4977698;28;20071;-68
2023/09/28 01:30:32;;;;;;;1999.90;999.90;;;18.00;99.90;;;;;;4975958;28;20045;-68
2023/09/28 01:32:58;;;;;;;1999.90;999.90;;;18.00;99.90;;;;;;4979263;28;20050;-68
2023/09/28 01:35:24;;;;;;;1999.90;999.90;;;18.00;99.90;;;;;;4979205;28;20425;-68
2023/09/28 01:38:18;;;;;;;1999.90;999.90;;;18.00;99.90;;;;;;4978815;28;20051;-68
2023/09/28 01:40:46;;;;;;;1999.90;999.90;;;17.90;99.90;;;;;;4941989;28;1059486;-68
2023/09/28 01:43:12;;;;;;;1999.90;999.90;;;17.90;99.90;;;;;;4978315;28;20054;-68
2023/09/28 01:45:37;;;;;;;1999.90;999.90;;;17.80;99.90;;;;;;4985300;28;20049;-68
2023/09/28 01:48:06;;;;;;;1999.90;999.90;;;17.80;99.90;;;;;;4981580;28;20098;-67
2023/09/28 01:50:32;;;;;;;1999.90;999.90;;;17.80;99.90;;;;;;4977688;28;20414;-68
2023/09/28 01:52:58;;;;;;;1999.90;999.90;;;17.80;99.90;;;;;;4982645;28;20042;-68
2023/09/28 01:55:24;;;;;;;1999.90;999.90;;;17.70;99.90;;;;;;4973392;28;20065;-68
2023/09/28 01:57:50;;;;;;;1999.90;999.90;;;17.70;99.90;;;;;;4978816;28;20138;-67
2023/09/28 02:00:20;;;;;;;1999.90;999.90;;;17.70;99.90;;;;;;4981017;28;20046;-67
2023/09/28 02:02:47;;;;;;;1999.90;999.90;;;17.60;99.90;;;;;;4980662;28;20038;-68
2023/09/28 02:05:17;;;;;;;1999.90;999.90;;;17.60;99.90;;;;;;4984232;28;20414;-68
2023/09/28 02:07:44;;;;;;;1999.90;999.90;;;17.60;99.90;;;;;;4968063;28;20046;-67
2023/09/28 02:10:10;;;;;;;1999.90;999.90;;;17.50;99.90;;;;;;4972900;28;20050;-67
2023/09/28 02:12:41;;;;;;;1999.90;999.90;;;17.50;99.90;;;;;;4969110;28;20034;-68
2023/09/28 02:15:09;;;;;;;1999.90;999.90;;;17.50;99.90;;;;;;4977714;28;20058;-68
2023/09/28 02:17:36;;;;;;;1999.90;999.90;;;17.50;99.90;;;;;;4973310;28;20043;-68
2023/09/28 02:20:14;;;;;;;1999.90;999.90;;;17.50;99.90;;;;;;4984051;28;20046;-68
2023/09/28 02:22:43;;;;;;;1999.90;999.90;;;17.40;99.90;;;;;;5011401;28;20672;-68
2023/09/28 02:25:15;;;;;;;1999.90;999.90;;;17.40;99.90;;;;;;5006926;28;20049;-68
2023/09/28 02:27:42;;;;;;;1999.90;999.90;;;17.30;99.90;;;;;;5006359;28;20042;-68
2023/09/28 02:30:14;;;;;;;1999.90;999.90;;;17.30;99.90;;;;;;4971040;28;20410;-68
2023/09/28 02:32:40;;;;;;;1999.90;999.90;;;17.30;99.90;;;;;;4980055;28;20104;-68
2023/09/28 02:35:07;;;;;;;1999.90;999.90;;;17.20;99.90;;;;;;4968535;28;20045;-68
2023/09/28 02:37:36;;;;;;;1999.90;999.90;;;17.20;99.90;;;;;;4983400;28;20043;-68
2023/09/28 02:40:05;;;;;;;1999.90;999.90;;;17.20;99.90;;;;;;4984363;28;20046;-68
2023/09/28 02:42:32;;;;;;;1999.90;999.90;;;17.10;99.90;;;;;;4980932;28;20114;-68
2023/09/28 02:44:58;;;;;;;1999.90;999.90;;;17.00;99.90;;;;;;4977247;28;20375;-68
2023/09/28 02:47:24;;;;;;;1999.90;999.90;;;17.00;99.90;;;;;;4977491;28;20049;-68
2023/09/28 02:49:51;;;;;;;1999.90;999.90;;;17.00;99.90;;;;;;4976221;28;20050;-68
2023/09/28 02:52:17;;;;;;;1999.90;999.90;;;16.90;99.90;;;;;;4988600;28;20048;-68
2023/09/28 02:54:43;;;;;;;1999.90;999.90;;;16.90;99.90;;;;;;4985618;28;20031;-67
2023/09/28 02:57:09;;;;;;;1999.90;999.90;;;16.90;99.90;;;;;;4976626;28;20043;-67
2023/09/28 02:59:34;;;;;;;1999.90;999.90;;;16.90;99.90;;;;;;4992660;28;20136;-67
2023/09/28 03:02:01;;;;;;;1999.90;999.90;;;16.80;99.90;;;;;;4980892;28;20382;-67
2023/09/28 03:04:29;;;;;;;1999.90;999.90;;;16.80;99.90;;;;;;4985729;28;20204;-67
2023/09/28 03:06:55;;;;;;;1999.90;999.90;;;16.80;99.90;;;;;;4982628;28;20053;-68
2023/09/28 03:09:21;;;;;;;1999.90;999.90;;;16.80;99.90;;;;;;4989090;28;20057;-67
2023/09/28 03:11:46;;;;;;;1999.90;999.90;;;16.80;99.90;;;;;;4977406;28;20031;-67
2023/09/28 03:14:12;;;;;;;1999.90;999.90;;;16.80;99.90;;;;;;4987585;28;20192;-67
2023/09/28 03:16:39;;;;;;;1999.90;999.90;;;16.80;99.90;;;;;;4981312;28;20049;-67
2023/09/28 03:19:06;;;;;;;1999.90;999.90;;;16.80;99.90;;;;;;4978489;28;20045;-67
2023/09/28 03:21:32;;;;;;;1999.90;999.90;;;16.90;99.90;;;;;;4973852;28;20046;-67
2023/09/28 03:24:01;;;;;;;1999.90;999.90;;;16.80;99.90;;;;;;4982369;28;20046;-67
2023/09/28 03:26:30;;;;;;;1999.90;999.90;;;16.80;99.90;;;;;;4981597;28;20078;-67
2023/09/28 03:28:56;;;;;;;1999.90;999.90;;;16.90;99.90;;;;;;4983416;28;20095;-67
2023/09/28 03:31:27;;;;;;;1999.90;999.90;;;16.90;99.90;;;;;;4986122;28;20053;-67
2023/09/28 03:33:55;;;;;;;1999.90;999.90;;;16.80;99.90;;;;;;4993453;28;20195;-67
2023/09/28 03:36:22;;;;;;;1999.90;999.90;;;16.80;99.90;;;;;;4978610;28;20038;-67
2023/09/28 03:38:48;;;;;;;1999.90;999.90;;;16.70;99.90;;;;;;4979523;28;20494;-67
2023/09/28 03:41:14;;;;;;;1999.90;999.90;;;16.70;99.90;;;;;;4983207;28;20417;-67
2023/09/28 03:43:42;;;;;;;1999.90;999.90;;;16.70;99.90;;;;;;4982225;28;20073;-67
2023/09/28 03:46:08;;;;;;;1999.90;999.90;;;16.70;99.90;;;;;;4979646;28;20038;-68
2023/09/28 03:48:33;;;;;;;1999.90;999.90;;;16.70;99.90;;;;;;4977652;28;20050;-67
2023/09/28 03:50:59;;;;;;;1999.90;999.90;;;16.70;99.90;;;;;;4988886;28;20502;-67
2023/09/28 03:53:25;;;;;;;1999.90;999.90;;;16.70;99.90;;;;;;4981956;28;20099;-67
2023/09/28 03:55:50;;;;;;;1999.90;999.90;;;16.60;99.90;;;;;;4981730;28;20414;-67
2023/09/28 03:58:16;;;;;;;1999.90;999.90;;;16.60;99.90;;;;;;4980876;28;20038;-67
2023/09/28 04:00:42;;;;;;;1999.90;999.90;;;16.60;99.90;;;;;;4984834;28;20961;-67
2023/09/28 04:03:08;;;;;;;1999.90;999.90;;;16.50;99.90;;;;;;4979860;28;20050;-67
2023/09/28 04:05:34;;;;;;;1999.90;999.90;;;16.50;99.90;;;;;;4979180;28;20537;-67
2023/09/28 04:08:00;;;;;;;1999.90;999.90;;;16.40;99.90;;;;;;4974532;28;20051;-67
2023/09/28 04:10:26;;;;;;;1999.90;999.90;;;16.40;99.90;;;;;;4976692;28;20038;-67
2023/09/28 04:12:55;;;;;;;1999.90;999.90;;;16.40;99.90;;;;;;4986451;28;20053;-67
2023/09/28 04:15:22;;;;;;;1999.90;999.90;;;16.30;99.90;;;;;;5000227;28;20083;-67
2023/09/28 04:17:48;;;;;;;1999.90;999.90;;;16.30;99.90;;;;;;4986149;28;20035;-67
2023/09/28 04:20:13;;;;;;;1999.90;999.90;;;16.30;99.90;;;;;;5011204;28;20040;-67
2023/09/28 04:22:39;;;;;;;1999.90;999.90;;;16.20;99.90;;;;;;4996839;28;20399;-67
2023/09/28 04:25:05;;;;;;;1999.90;999.90;;;16.20;99.90;;;;;;4973621;28;20395;-67
2023/09/28 04:27:31;;;;;;;1999.90;999.90;;;16.20;99.90;;;;;;4969975;28;20046;-67
2023/09/28 04:29:57;;;;;;;1999.90;999.90;;;16.20;99.90;;;;;;4972452;28;20050;-67
2023/09/28 04:32:22;;;;;;;1999.90;999.90;;;16.10;99.90;;;;;;4979461;28;20094;-67
2023/09/28 04:34:48;;;;;;;1999.90;999.90;;;16.10;99.90;;;;;;4971898;28;20077;-67
2023/09/28 04:37:16;;;;;;;1999.90;999.90;;;16.10;99.90;;;;;;4971299;28;20071;-67
2023/09/28 04:39:42;;;;;;;1999.90;999.90;;;16.10;99.90;;;;;;4980463;28;20042;-67
2023/09/28 04:42:08;;;;;;;1999.90;999.90;;;16.10;99.90;;;;;;4976120;28;20396;-67
2023/09/28 04:44:33;;;;;;;1999.90;999.90;;;16.10;99.90;;;;;;4983534;28;20563;-67
2023/09/28 04:46:59;;;;;;;1999.90;999.90;;;16.10;99.90;;;;;;4978735;28;20065;-67
2023/09/28 04:49:25;;;;;;;1999.90;999.90;;;16.10;99.90;;;;;;4978305;28;20612;-67
2023/09/28 04:51:51;;;;;;;1999.90;999.90;;;16.00;99.90;;;;;;4974696;28;20054;-67
2023/09/28 04:54:17;;;;;;;1999.90;999.90;;;16.00;99.90;;;;;;4974471;28;20398;-67
2023/09/28 04:56:43;;;;;;;1999.90;999.90;;;16.00;99.90;;;;;;4973982;28;20042;-67
2023/09/28 04:59:08;;;;;;;1999.90;999.90;;;16.00;99.90;;;;;;4979168;28;20046;-67
2023/09/28 05:01:34;;;;;;;1999.90;999.90;;;16.00;99.90;;;;;;4970116;28;20078;-67
2023/09/28 05:04:00;;;;;;;1999.90;999.90;;;16.00;99.90;;;;;;4972761;28;20046;-67
2023/09/28 05:06:27;;;;;;;1999.90;999.90;;;16.00;99.90;;;;;;4978126;28;20039;-67
2023/09/28 05:08:53;;;;;;;1999.90;999.90;;;16.10;99.90;;;;;;4968867;28;20398;-67
2023/09/28 05:11:18;;;;;;;1999.90;999.90;;;16.10;99.90;;;;;;4971609;28;20042;-67
2023/09/28 05:13:44;;;;;;;1999.90;999.90;;;16.10;99.90;;;;;;4975170;28;20561;-67
2023/09/28 05:16:09;;;;;;;1999.90;999.90;;;16.20;99.90;;;;;;4973906;28;20043;-67
2023/09/28 05:18:36;;;;;;;1999.90;999.90;;;16.20;99.90;;;;;;4980848;28;20482;-67
2023/09/28 05:21:01;;;;;;;1999.90;999.90;;;16.20;99.90;;;;;;4966620;28;20047;-67
2023/09/28 05:23:27;;;;;;;1999.90;999.90;;;16.30;99.90;;;;;;4987189;28;20468;-67
2023/09/28 05:25:52;;;;;;;1999.90;999.90;;;16.30;99.90;;;;;;4981223;28;20050;-67
2023/09/28 05:28:18;;;;;;;1999.90;999.90;;;16.30;99.90;;;;;;4979406;28;20065;-67
2023/09/28 05:30:44;;;;;;;1999.90;999.90;;;16.30;99.90;;;;;;4975614;28;20046;-67
2023/09/28 05:33:09;;;;;;;1999.90;999.90;;;16.30;99.90;;;;;;4957438;28;20039;-67
2023/09/28 05:35:35;;;;;;;1999.90;999.90;;;16.30;99.90;;;;;;4987325;28;20115;-67
2023/09/28 05:38:02;;;;;;;1999.90;999.90;;;16.30;99.90;;;;;;4976555;28;20035;-67
2023/09/28 05:40:27;;;;;;;1999.90;999.90;;;16.30;99.90;;;;;;4977514;28;20058;-67
2023/09/28 05:42:53;;;;;;;1999.90;999.90;;;16.30;99.90;;;;;;4971371;28;20054;-67
2023/09/28 05:45:18;;;;;;;1999.90;999.90;;;16.30;99.90;;;;;;4975797;28;20121;-67
2023/09/28 05:47:44;;;;;;;1999.90;999.90;;;16.20;99.90;;;;;;4976556;28;20038;-67
2023/09/28 05:50:13;;;;;;;1999.90;999.90;;;16.20;99.90;;;;;;4986849;28;20050;-67
2023/09/28 05:52:39;;;;;;;1999.90;999.90;;;16.10;99.90;;;;;;4972817;28;20051;-67
2023/09/28 05:55:05;;;;;;;1999.90;999.90;;;16.10;99.90;;;;;;4973967;28;20247;-67
2023/09/28 05:57:31;;;;;;;1999.90;999.90;;;16.10;99.90;;;;;;4978897;28;20050;-67
2023/09/28 05:59:56;;;;;;;1999.90;999.90;;;16.10;99.90;;;;;;4987069;28;20038;-67
2023/09/28 06:02:22;;;;;;;1999.90;999.90;;;16.00;99.90;;;;;;5003867;28;20046;-67
2023/09/28 06:04:48;;;;;;;1999.90;999.90;;;16.00;99.90;;;;;;4986504;28;20392;-67
2023/09/28 06:07:13;;;;;;;1999.90;999.90;;;16.00;99.90;;;;;;4976444;28;20050;-67
2023/09/28 06:09:40;;;;;;;1999.90;999.90;;;16.00;99.90;;;;;;5009750;28;20490;-67
2023/09/28 06:12:06;;;;;;;1999.90;999.90;;;16.00;99.90;;;;;;4979340;28;20142;-67
2023/09/28 06:14:33;;;;;;;1999.90;999.90;;;16.00;99.90;;;;;;4975651;28;20495;-67
2023/09/28 06:16:59;;;;;;;1999.90;999.90;;;16.10;99.90;;;;;;4981886;28;20133;-67
2023/09/28 06:19:25;;;;;;;1999.90;999.90;;;16.10;99.90;;;;;;4975328;28;20037;-67
2023/09/28 06:21:51;;;;;;;1999.90;999.90;;;16.10;99.90;;;;;;4977284;28;20114;-67
2023/09/28 06:24:18;;;;;;;1999.90;999.90;;;16.20;99.90;;;;;;5009729;28;20104;-67
2023/09/28 06:26:43;;;;;;;1999.90;999.90;;;16.20;99.90;;;;;;4982779;28;20049;-67
2023/09/28 06:29:09;;;;;;;1999.90;999.90;;;16.20;99.90;;;;;;4981726;28;20491;-67
2023/09/28 06:31:36;;;;;;;1999.90;999.90;;;16.20;99.90;;;;;;4981183;28;20057;-67
2023/09/28 06:34:01;;;;;;;1999.90;999.90;;;16.20;99.90;;;;;;4981731;28;20047;-67
2023/09/28 06:36:32;;;;;;;1999.90;999.90;;;16.30;99.90;;;;;;4985845;28;20102;-67
2023/09/28 06:38:58;;;;;;;1999.90;999.90;;;16.30;99.90;;;;;;4977802;28;20047;-67
2023/09/28 06:41:23;;;;;;;1999.90;999.90;;;16.30;99.90;;;;;;4983083;28;20058;-67
2023/09/28 06:43:49;;;;;;;1999.90;999.90;;;16.30;99.90;;;;;;4989155;28;20059;-67
2023/09/28 06:46:15;;;;;;;1999.90;999.90;;;16.30;99.90;;;;;;4989266;28;20035;-67
2023/09/28 06:48:40;;;;;;;1999.90;999.90;;;16.40;99.90;;;;;;5006882;28;20112;-67
2023/09/28 06:51:06;;;;;;;1999.90;999.90;;;16.40;99.90;;;;;;4970874;28;20049;-67
2023/09/28 06:53:32;;;;;;;1999.90;999.90;;;16.50;99.90;;;;;;4975638;28;20074;-67
2023/09/28 06:56:02;;;;;;;1999.90;999.90;;;16.60;99.90;;;;;;4979756;28;20059;-67
2023/09/28 06:58:28;;;;;;;1999.90;999.90;;;16.60;99.90;;;;;;4968046;28;20077;-67
2023/09/28 07:00:53;;;;;;;1999.90;999.90;;;16.60;99.90;;;;;;4975020;28;20616;-67
2023/09/28 07:03:19;;;;;;;1999.90;999.90;;;16.70;99.90;;;;;;4972737;28;20049;-67
2023/09/28 07:05:46;;;;;;;1999.90;999.90;;;16.80;99.90;;;;;;4970907;28;20042;-67
2023/09/28 07:08:12;;;;;;;1999.90;999.90;;;17.00;99.90;;;;;;4973314;28;20057;-67
2023/09/28 07:10:38;;;;;;;1999.90;999.90;;;17.00;99.90;;;;;;4970420;28;20097;-67
2023/09/28 07:13:05;;;;;;;1999.90;999.90;;;17.20;99.90;;;;;;4957871;28;20039;-67
2023/09/28 07:15:40;;;;;;;1999.90;999.90;;;17.40;99.90;;;;;;4979214;28;20050;-67
2023/09/28 07:18:06;;;;;;;1999.90;999.90;;;17.40;99.90;;;;;;4973939;28;20042;-67
2023/09/28 07:20:32;;;;;;;1999.90;999.90;;;17.50;99.90;;;;;;4976016;28;20038;-67
2023/09/28 07:22:58;;;;;;;1999.90;999.90;;;17.60;99.90;;;;;;4999703;28;20094;-67
2023/09/28 07:25:27;;;;;;;1999.90;999.90;;;17.70;99.90;;;;;;4994567;28;20043;-67
2023/09/28 07:27:53;;;;;;;1999.90;999.90;;;17.80;99.90;;;;;;4976734;28;20069;-67
2023/09/28 07:30:20;;;;;;;1999.90;999.90;;;17.90;99.90;;;;;;4976718;28;20043;-67
2023/09/28 07:32:46;;;;;;;1999.90;999.90;;;18.00;99.90;;;;;;4982925;28;20074;-68
2023/09/28 07:35:13;;;;;;;1999.90;999.90;;;18.10;99.90;;;;;;4992664;28;20387;-68
2023/09/28 07:37:40;;;;;;;1999.90;999.90;;;18.30;99.90;;;;;;4974982;28;20039;-67
2023/09/28 07:40:07;;;;;;;1999.90;999.90;;;18.30;99.90;;;;;;4980431;28;20057;-67
2023/09/28 07:42:32;;;;;;;1999.90;999.90;;;18.30;99.90;;;;;;4981240;28;20085;-67
2023/09/28 07:44:58;;;;;;;1999.90;999.90;;;18.30;99.90;;;;;;4982564;28;20050;-67
2023/09/28 07:47:24;;;;;;;1999.90;999.90;;;18.30;99.90;;;;;;4981064;28;20054;-67
2023/09/28 07:49:52;;;;;;;1999.90;999.90;;;18.40;99.90;;;;;;4962768;28;20050;-67
2023/09/28 07:52:18;;;;;;;1999.90;999.90;;;18.50;99.90;;;;;;4979102;28;20057;-67
2023/09/28 07:54:44;;;;;;;1999.90;999.90;;;18.60;99.90;;;;;;5026240;27;20483;-67
2023/09/28 07:57:09;;;;;;;1999.90;999.90;;;18.70;99.90;;;;;;4999897;28;20032;-67
2023/09/28 07:59:35;;;;;;;1999.90;999.90;;;18.70;99.90;;;;;;4983427;28;20046;-67
2023/09/28 08:02:01;;;;;;;1999.90;999.90;;;18.80;99.90;;;;;;4980168;28;20453;-67
2023/09/28 08:04:27;;;;;;;1999.90;999.90;;;18.90;99.90;;;;;;5000694;28;20042;-67
2023/09/28 08:06:54;;;;;;;1999.90;999.90;;;19.00;99.90;;;;;;4989002;28;20034;-67
2023/09/28 08:09:20;;;;;;;1533.22;781.38;;;19.00;99.90;;;;;;4979326;28;20516;-67
2023/09/28 08:11:48;;;;;;;134.90;128.25;;;19.10;99.90;;;;;;5008624;28;20484;-67
2023/09/28 08:14:15;;;;;;;610.78;355.08;;;19.10;99.90;;;;;;4981659;28;20040;-67
2023/09/28 08:16:45;;;;;;;120.80;114.65;;;19.10;99.90;;;;;;4979431;28;20111;-67
2023/09/28 08:19:11;;;;;;;113.75;107.85;;;19.00;99.90;;;;;;4980513;28;20487;-67
2023/09/28 08:21:38;;;;;;;120.10;113.97;;;19.10;99.90;;;;;;4975032;28;20108;-67
2023/09/28 08:24:08;;;;;;;131.35;124.55;;;19.20;99.90;;;;;;4979479;28;20042;-67
2023/09/28 08:26:34;;;;;;;107.18;101.70;;;19.20;99.90;;;;;;4994460;28;20046;-67
2023/09/28 08:29:01;;;;;;;142.85;136.00;;;19.20;99.90;;;;;;4978570;28;20139;-67
2023/09/28 08:31:27;;;;;;;151.95;144.07;;;19.20;99.90;;;;;;4973664;28;20050;-67
2023/09/28 08:33:53;;;;;;;1999.90;999.90;;;19.30;99.90;;;;;;5015437;28;20129;-67
2023/09/28 08:36:19;;;;;;;649.80;392.58;;;19.30;99.90;;;;;;4974045;28;20042;-67
2023/09/28 08:38:46;;;;;;;294.60;280.17;;;19.50;99.90;;;;;;4974967;28;20080;-68
2023/09/28 08:41:14;;;;;;;192.10;182.20;;;19.80;99.90;;;;;;4981978;28;20058;-67
2023/09/28 08:43:43;;;;;;;293.88;279.83;;;20.30;99.90;;;;;;4978355;28;20057;-68
2023/09/28 08:46:12;;;;;;;299.45;285.05;;;20.80;99.90;;;;;;4972632;28;20046;-67
2023/09/28 08:48:42;;;;;;;269.13;254.75;;;21.10;99.90;;;;;;4973887;28;20128;-68
2023/09/28 08:51:10;;;;;;;242.98;229.73;;;21.40;99.90;;;;;;4972007;28;20043;-67
2023/09/28 08:53:40;;;;;;;233.98;221.88;;;21.50;99.90;;;;;;4995334;28;20059;-67
2023/09/28 08:56:07;;;;;;;354.85;337.40;;;21.60;99.90;;;;;;4978321;28;20046;-69
2023/09/28 08:58:36;;;;;;;290.08;276.88;;;21.50;99.90;;;;;;4977478;28;20073;-68
2023/09/28 09:01:03;;;;;;;117.18;111.13;;;21.40;99.90;;;;;;4996542;28;20419;-67
2023/09/28 09:03:33;;;;;;;112.28;106.40;;;21.20;99.90;;;;;;4978033;28;20042;-68
2023/09/28 09:05:58;;;;;;;133.73;126.88;;;20.90;99.90;;;;;;4975923;28;20061;-67
2023/09/28 09:08:27;;;;;;;172.07;163.32;;;20.50;99.90;;;;;;4979169;28;20491;-67
2023/09/28 09:10:54;;;;;;;153.55;145.52;;;20.30;99.90;;;;;;4972326;28;20628;-67
2023/09/28 09:13:19;;;;;;;267.50;254.50;;;20.10;99.90;;;;;;4975817;28;20061;-67
2023/09/28 09:15:45;;;;;;;133.80;127.22;;;20.00;99.90;;;;;;4980948;28;20057;-67
2023/09/28 09:18:21;;;;;;;192.18;182.82;;;19.90;99.90;;;;;;4975355;28;20046;-67
2023/09/28 09:20:48;;;;;;;175.63;167.23;;;19.80;99.90;;;;;;4975993;28;20047;-67
2023/09/28 09:23:15;;;;;;;308.02;292.92;;;19.70;99.90;;;;;;4977456;28;20109;-67
2023/09/28 09:25:47;;;;;;;374.70;355.73;;;19.70;99.90;;;;;;4973837;28;20151;-67
2023/09/28 09:28:25;;;;;;;317.23;301.85;;;19.60;99.90;;;;;;4972797;28;20050;-67
2023/09/28 09:30:52;;;;;;;409.75;388.90;;;19.50;99.90;;;;;;4986665;28;20122;-67
2023/09/28 09:33:18;;;;;;;400.85;379.88;;;19.40;99.90;;;;;;5006271;28;20516;-67
2023/09/28 09:35:44;;;;;;;329.77;312.60;;;19.30;99.90;;;;;;5008574;28;20182;-67
2023/09/28 09:38:09;;;;;;;430.67;407.45;;;19.20;99.90;;;;;;4972987;28;20056;-67
2023/09/28 09:40:35;;;;;;;348.05;330.10;;;19.10;99.90;;;;;;4969574;28;20042;-68
2023/09/28 09:43:08;;;;;;;398.98;377.60;;;19.20;99.90;;;;;;4974646;28;20046;-67
2023/09/28 09:45:40;;;;;;;448.65;424.52;;;19.20;99.90;;;;;;4970422;28;20035;-67
2023/09/28 09:48:09;;;;;;;409.17;387.63;;;19.30;99.90;;;;;;4971441;28;20038;-68
2023/09/28 09:50:36;;;;;;;458.65;433.95;;;19.50;99.90;;;;;;4954350;28;20046;-67
2023/09/28 09:53:06;;;;;;;379.38;359.77;;;19.70;99.90;;;;;;4968625;28;20191;-67
2023/09/28 09:55:33;;;;;;;278.98;264.40;;;19.80;99.90;;;;;;4975373;28;20053;-67
2023/09/28 09:58:03;;;;;;;328.90;312.88;;;19.80;99.90;;;;;;4971379;28;20117;-67
2023/09/28 10:00:33;;;;;;;445.98;422.35;;;19.80;99.90;;;;;;4975287;28;20074;-67
2023/09/28 10:03:03;;;;;;;297.02;282.88;;;19.80;99.90;;;;;;4972867;28;20111;-67
2023/09/28 10:05:29;;;;;;;371.70;352.77;;;19.90;99.90;;;;;;4970865;28;20056;-67
2023/09/28 10:07:57;;;;;;;362.92;345.02;;;19.90;99.90;;;;;;4967806;28;20380;-67
2023/09/28 10:10:23;;;;;;;258.98;246.82;;;19.80;99.90;;;;;;4974974;28;20522;-67
2023/09/28 10:12:50;;;;;;;344.45;327.17;;;19.70;99.90;;;;;;4978373;28;20501;-67
2023/09/28 10:15:17;;;;;;;376.67;357.45;;;19.70;99.90;;;;;;4975094;28;20051;-67
2023/09/28 10:17:44;;;;;;;168.65;159.65;;;19.70;99.90;;;;;;4970256;28;20096;-67
2023/09/28 10:20:13;;;;;;;283.13;269.85;;;19.70;99.90;;;;;;4973600;28;20054;-68
2023/09/28 10:22:44;;;;;;;339.55;322.98;;;19.70;99.90;;;;;;4975986;28;20559;-67
2023/09/28 10:25:15;;;;;;;353.80;335.80;;;19.60;99.90;;;;;;4980527;28;20046;-67
2023/09/28 10:27:45;;;;;;;377.77;359.35;;;19.70;99.90;;;;;;5000271;28;20042;-67
2023/09/28 10:30:19;;;;;;;349.35;332.67;;;19.70;99.90;;;;;;5002552;28;20042;-67
2023/09/28 10:32:45;;;;;;;375.45;356.67;;;19.70;99.90;;;;;;4973163;28;20119;-67
2023/09/28 10:35:26;;;;;;;437.77;415.02;;;19.70;99.90;;;;;;4977447;28;20042;-67
2023/09/28 10:38:16;;;;;;;207.48;197.63;;;19.60;99.90;;;;;;4993273;28;20049;-67
2023/09/28 10:40:44;;;;;;;328.17;311.67;;;19.50;99.90;;;;;;4972256;28;20050;-67
2023/09/28 10:43:10;;;;;;;388.75;369.52;;;19.50;99.90;;;;;;4985517;28;20050;-67
2023/09/28 10:45:37;;;;;;;377.00;358.20;;;19.50;99.90;;;;;;4971102;28;20469;-67
2023/09/28 10:48:05;;;;;;;356.13;338.80;;;19.50;99.90;;;;;;4995090;28;20050;-67
2023/09/28 10:50:30;;;;;;;239.55;227.82;;;19.50;99.90;;;;;;4977513;28;20047;-67
2023/09/28 10:52:56;;;;;;;347.23;330.10;;;19.60;99.90;;;;;;4975473;28;20038;-67
2023/09/28 10:55:22;;;;;;;267.65;255.27;;;19.50;99.90;;;;;;5003573;28;20121;-67
2023/09/28 10:57:48;;;;;;;128.15;121.90;;;19.50;99.90;;;;;;4980580;28;20095;-67
2023/09/28 11:00:13;;;;;;;172.15;163.95;;;19.50;99.90;;;;;;4980395;28;20038;-67
2023/09/28 11:02:41;;;;;;;138.25;131.25;;;19.50;99.90;;;;;;4974935;28;20047;-67
2023/09/28 11:05:08;;;;;;;210.13;199.65;;;19.50;99.90;;;;;;4972713;28;20055;-68
2023/09/28 11:07:35;;;;;;;226.25;215.80;;;19.60;99.90;;;;;;4967247;28;20119;-68
2023/09/28 11:10:00;;;;;;;224.15;213.77;;;19.60;99.90;;;;;;4970421;28;20426;-68
2023/09/28 11:12:30;;;;;;;136.57;129.82;;;19.60;99.90;;;;;;4967476;28;20043;-67
2023/09/28 11:14:58;;;;;;;129.30;123.10;;;19.60;99.90;;;;;;4980228;28;20460;-67
2023/09/28 11:17:24;;;;;;;131.55;124.82;;;19.70;99.90;;;;;;4969573;28;20125;-67
2023/09/28 11:19:50;;;;;;;138.35;131.43;;;19.60;99.90;;;;;;4978114;28;21795;-67
2023/09/28 11:22:17;;;;;;;128.77;122.25;;;19.60;99.90;;;;;;4977593;28;20034;-67
2023/09/28 11:24:44;;;;;;;112.20;106.47;;;19.60;99.90;;;;;;4999035;28;20038;-67
2023/09/28 11:27:10;;;;;;;132.07;125.55;;;19.60;99.90;;;;;;4980927;28;20046;-67
2023/09/28 11:29:38;;;;;;;144.20;136.50;;;19.60;99.90;;;;;;4975585;28;20043;-67
2023/09/28 11:32:04;;;;;;;117.50;111.22;;;19.60;99.90;;;;;;4969382;28;20442;-68
2023/09/28 11:34:34;;;;;;;141.02;134.02;;;19.70;99.90;;;;;;4974582;28;20046;-67
2023/09/28 11:37:00;;;;;;;170.73;162.68;;;19.70;99.90;;;;;;4979198;28;20497;-67
2023/09/28 11:39:26;;;;;;;132.82;126.38;;;19.70;99.90;;;;;;4980839;28;20513;-67
2023/09/28 11:41:59;;;;;;;143.90;137.05;;;19.60;99.90;;;;;;4981549;28;20058;-68
2023/09/28 11:44:28;;;;;;;155.07;147.27;;;19.60;99.90;;;;;;4977861;28;20141;-67
2023/09/28 11:46:54;;;;;;;97.00;91.78;;;19.60;99.90;;;;;;4984286;28;20054;-67
2023/09/28 11:49:21;;;;;;;159.20;151.35;;;19.60;99.90;;;;;;4987031;28;20094;-67
2023/09/28 11:51:47;;;;;;;121.90;115.57;;;19.70;99.90;;;;;;4988492;28;20432;-67
2023/09/28 11:54:14;;;;;;;130.73;124.03;;;19.60;99.90;;;;;;4983242;28;20039;-68
2023/09/28 11:56:41;;;;;;;248.88;236.75;;;19.60;99.90;;;;;;5014214;28;20049;-67
2023/09/28 11:59:08;;;;;;;183.32;174.57;;;19.70;99.90;;;;;;4979680;28;20035;-67
2023/09/28 12:01:34;;;;;;;155.73;147.95;;;19.80;99.90;;;;;;4976824;28;20438;-68